createdAt,value
2022-08-09T00:00:11.265Z,102273.52
2022-08-09T00:02:13.854Z,102276.20
2022-08-09T00:04:33.883Z,102271.92
2022-08-09T00:06:36.905Z,102271.56
2022-08-09T00:08:39.571Z,102270.65
2022-08-09T00:10:41.912Z,102269.46
2022-08-09T00:12:43.629Z,102278.71
2022-08-09T00:14:47.556Z,102275.76
2022-08-09T00:16:51.118Z,102277.32
2022-08-09T00:18:54.879Z,102278.48
2022-08-09T00:20:56.520Z,102277.38
2022-08-09T00:23:09.929Z,102276.19
2022-08-09T00:25:23.278Z,102280.92
2022-08-09T00:27:28.411Z,102283.77
2022-08-09T00:30:16.468Z,102280.81
2022-08-09T00:32:01.268Z,102275.80
2022-08-09T00:34:04.443Z,102280.96
2022-08-09T00:36:06.270Z,102283.08
2022-08-09T00:38:12.699Z,102286.48
2022-08-09T00:40:17.198Z,102286.54
2022-08-09T00:44:16.317Z,102284.84
2022-08-09T00:44:41.089Z,102287.33
2022-08-09T00:46:57.251Z,102285.23
2022-08-09T00:49:05.235Z,102285.05
2022-08-09T00:51:11.858Z,102286.38
2022-08-09T00:53:14.684Z,102290.08
2022-08-09T00:56:02.972Z,102288.88
2022-08-09T00:57:38.805Z,102280.06
2022-08-09T00:59:46.265Z,102287.30
2022-08-09T01:01:49.368Z,102287.80
2022-08-09T01:03:56.774Z,102290.58
2022-08-09T01:06:17.807Z,102290.73
2022-08-09T01:08:31.270Z,102285.64
2022-08-09T01:11:08.509Z,102285.68
2022-08-09T01:13:22.169Z,102288.80
2022-08-09T01:15:26.037Z,102285.44
2022-08-09T01:17:34.244Z,102286.11
2022-08-09T01:19:57.147Z,102285.64
2022-08-09T01:22:30.460Z,102282.17
2022-08-09T01:24:50.433Z,102281.28
2022-08-09T01:27:07.890Z,102283.83
2022-08-09T01:29:13.199Z,102284.16
2022-08-09T01:32:30.307Z,102284.39
2022-08-09T01:33:44.649Z,102292.90
2022-08-09T01:35:51.912Z,102291.65
2022-08-09T01:38:08.376Z,102294.65
2022-08-09T01:40:23.217Z,102292.67
2022-08-09T01:42:31.094Z,102294.45
2022-08-09T01:44:34.817Z,102291.61
2022-08-09T01:46:40.218Z,102292.52
2022-08-09T01:48:44.954Z,102294.41
2022-08-09T01:50:55.021Z,102292.73
2022-08-09T01:52:58.159Z,102298.50
2022-08-09T01:55:02.209Z,102301.17
2022-08-09T01:57:16.578Z,102302.18
2022-08-09T01:59:20.335Z,102303.14
2022-08-09T02:01:30.534Z,102296.89
2022-08-09T02:03:44.421Z,102299.44
2022-08-09T02:05:53.508Z,102300.95
2022-08-09T02:08:35.943Z,102294.56
2022-08-09T02:10:37.339Z,102293.29
2022-08-09T02:12:41.932Z,102293.05
2022-08-09T02:14:48.373Z,102298.36
2022-08-09T02:17:00.135Z,102296.68
2022-08-09T02:19:16.844Z,102299.41
2022-08-09T02:21:22.418Z,102298.86
2022-08-09T02:23:24.267Z,102302.41
2022-08-09T02:25:29.588Z,102296.43
2022-08-09T02:27:57.720Z,102294.47
2022-08-09T02:29:55.403Z,102295.50
2022-08-09T02:32:01.321Z,102290.65
2022-08-09T02:34:13.372Z,102292.61
2022-08-09T02:36:32.240Z,102295.46
2022-08-09T02:38:36.987Z,102296.23
2022-08-09T02:40:39.702Z,102296.74
2022-08-09T02:42:43.612Z,102299.15
2022-08-09T02:44:55.717Z,102299.03
2022-08-09T02:47:02.230Z,102299.07
2022-08-09T02:49:10.025Z,102298.79
2022-08-09T02:51:13.539Z,102298.05
2022-08-09T02:53:26.447Z,102300.44
2022-08-09T02:55:39.434Z,102300.20
2022-08-09T02:58:00.115Z,102299.20
2022-08-09T03:00:25.716Z,102298.15
2022-08-09T03:02:29.204Z,102297.67
2022-08-09T03:04:32.696Z,102292.73
2022-08-09T03:06:36.175Z,102291.63
2022-08-09T03:08:39.339Z,102293.97
2022-08-09T03:10:44.925Z,102293.50
2022-08-09T03:12:53.417Z,102290.01
2022-08-09T03:14:55.470Z,102291.17
2022-08-09T03:16:59.660Z,102287.48
2022-08-09T03:19:04.237Z,102289.52
2022-08-09T03:21:16.945Z,102289.89
2022-08-09T03:23:24.413Z,102289.52
2022-08-09T03:25:59.322Z,102291.94
2022-08-09T03:27:50.998Z,102295.55
2022-08-09T03:29:57.741Z,102294.48
2022-08-09T03:32:04.554Z,102292.47
2022-08-09T03:34:12.033Z,102292.20
2022-08-09T03:36:18.075Z,102297.56
2022-08-09T03:38:29.002Z,102297.13
2022-08-09T03:40:32.129Z,102296.67
2022-08-09T03:42:34.940Z,102294.52
2022-08-09T03:44:36.628Z,102291.44
2022-08-09T03:46:39.466Z,102289.98
2022-08-09T03:48:48.244Z,102290.54
2022-08-09T03:50:54.562Z,102293.45
2022-08-09T03:53:03.233Z,102300.34
2022-08-09T03:55:07.681Z,102299.33
2022-08-09T03:57:20.413Z,102298.74
2022-08-09T03:59:27.306Z,102297.12
2022-08-09T04:01:30.646Z,102301.46
2022-08-09T04:03:45.990Z,102296.33
2022-08-09T04:06:00.470Z,102291.46
2022-08-09T04:08:06.545Z,102294.41
2022-08-09T04:10:10.616Z,102295.42
2022-08-09T04:12:31.034Z,102297.60
2022-08-09T04:14:37.370Z,102295.80
2022-08-09T04:16:55.168Z,102293.99
2022-08-09T04:19:04.218Z,102291.63
2022-08-09T04:21:12.793Z,102289.99
2022-08-09T04:23:17.308Z,102292.36
2022-08-09T04:25:19.400Z,102294.56
2022-08-09T04:27:22.146Z,102290.20
2022-08-09T04:29:24.172Z,102293.55
2022-08-09T04:31:37.450Z,102291.64
2022-08-09T04:33:56.536Z,102294.09
2022-08-09T04:35:58.916Z,102297.20
2022-08-09T04:38:03.606Z,102303.09
2022-08-09T04:40:07.241Z,102300.94
2022-08-09T04:42:10.627Z,102298.15
2022-08-09T04:44:17.559Z,102298.43
2022-08-09T04:46:37.799Z,102297.91
2022-08-09T04:48:41.081Z,102301.69
2022-08-09T04:50:59.325Z,102304.36
2022-08-09T04:53:01.113Z,102307.19
2022-08-09T04:55:06.493Z,102304.83
2022-08-09T04:57:15.006Z,102306.40
2022-08-09T04:59:16.667Z,102304.33
2022-08-09T05:01:22.871Z,102305.60
2022-08-09T05:03:40.255Z,102312.42
2022-08-09T05:05:51.988Z,102312.47
2022-08-09T05:07:54.582Z,102318.13
2022-08-09T05:09:57.816Z,102314.20
2022-08-09T05:12:03.949Z,102317.75
2022-08-09T05:14:06.739Z,102320.76
2022-08-09T05:16:10.355Z,102321.87
2022-08-09T05:18:55.115Z,102318.33
2022-08-09T05:20:33.725Z,102319.84
2022-08-09T05:23:54.026Z,102322.94
2022-08-09T05:25:00.978Z,102328.91
2022-08-09T05:27:04.615Z,102329.48
2022-08-09T05:29:06.278Z,102329.95
2022-08-09T05:31:09.629Z,102333.79
2022-08-09T05:33:11.809Z,102334.50
2022-08-09T05:35:14.935Z,102337.08
2022-08-09T05:37:16.650Z,102339.54
2022-08-09T05:39:21.684Z,102342.00
2022-08-09T05:41:30.984Z,102341.15
2022-08-09T05:43:35.431Z,102343.50
2022-08-09T05:45:52.693Z,102344.72
2022-08-09T05:48:01.291Z,102341.65
2022-08-09T05:50:25.969Z,102345.38
2022-08-09T05:52:25.076Z,102345.38
2022-08-09T05:54:26.722Z,102350.08
2022-08-09T05:56:28.490Z,102349.86
2022-08-09T05:58:30.170Z,102352.62
2022-08-09T06:00:33.083Z,102350.80
2022-08-09T06:02:35.881Z,102354.84
2022-08-09T06:04:37.734Z,102353.77
2022-08-09T06:06:49.977Z,102352.37
2022-08-09T06:08:53.629Z,102354.98
2022-08-09T06:10:57.060Z,102350.74
2022-08-09T06:13:11.639Z,102354.69
2022-08-09T06:15:20.310Z,102356.92
2022-08-09T06:17:22.027Z,102362.98
2022-08-09T06:19:23.670Z,102368.75
2022-08-09T06:21:29.299Z,102365.73
2022-08-09T06:23:55.467Z,102369.60
2022-08-09T06:25:55.136Z,102371.90
2022-08-09T06:27:57.193Z,102371.13
2022-08-09T06:30:09.584Z,102374.10
2022-08-09T06:32:53.292Z,102377.20
2022-08-09T06:34:34.514Z,102379.64
2022-08-09T06:36:43.756Z,102380.52
2022-08-09T06:38:50.223Z,102380.95
2022-08-09T06:40:54.745Z,102380.77
2022-08-09T06:42:58.103Z,102384.04
2022-08-09T06:46:03.476Z,102382.52
2022-08-09T06:47:23.886Z,102381.73
2022-08-09T06:49:44.894Z,102380.71
2022-08-09T06:51:47.570Z,102377.58
2022-08-09T06:53:49.827Z,102378.34
2022-08-09T06:55:51.921Z,102377.65
2022-08-09T06:58:02.483Z,102378.30
2022-08-09T07:00:51.632Z,102381.45
2022-08-09T07:02:29.306Z,102384.08
2022-08-09T07:04:33.098Z,102389.98
2022-08-09T07:06:35.420Z,102392.89
2022-08-09T07:08:39.420Z,102396.66
2022-08-09T07:10:41.369Z,102401.83
2022-08-09T07:12:44.915Z,102401.36
2022-08-09T07:14:59.447Z,102406.71
2022-08-09T07:17:21.472Z,102403.17
2022-08-09T07:19:23.926Z,102409.48
2022-08-09T07:21:25.701Z,102413.38
2022-08-09T07:23:32.598Z,102411.17
2022-08-09T07:25:42.689Z,102408.48
2022-08-09T07:27:53.309Z,102407.39
2022-08-09T07:29:58.521Z,102404.79
2022-08-09T07:32:03.575Z,102401.29
2022-08-09T07:34:05.469Z,102402.69
2022-08-09T07:36:09.933Z,102399.55
2022-08-09T07:38:11.704Z,102399.56
2022-08-09T07:40:17.711Z,102398.77
2022-08-09T07:42:20.142Z,102398.05
2022-08-09T07:44:50.959Z,102400.59
2022-08-09T07:46:55.040Z,102396.80
2022-08-09T07:48:59.304Z,102399.73
2022-08-09T07:52:02.445Z,102399.79
2022-08-09T07:54:01.579Z,102401.36
2022-08-09T07:56:03.572Z,102401.96
2022-08-09T07:58:13.138Z,102404.16
2022-08-09T08:00:20.273Z,102402.86
2022-08-09T08:02:42.236Z,102399.67
2022-08-09T08:04:48.491Z,102397.17
2022-08-09T08:06:56.358Z,102397.55
2022-08-09T08:09:05.387Z,102391.84
2022-08-09T08:12:09.403Z,102398.09
2022-08-09T08:13:41.274Z,102392.95
2022-08-09T08:15:52.933Z,102394.49
2022-08-09T08:17:58.300Z,102395.85
2022-08-09T08:20:00.372Z,102397.88
2022-08-09T08:22:03.182Z,102401.98
2022-08-09T08:24:11.921Z,102403.97
2022-08-09T08:26:18.319Z,102399.35
2022-08-09T08:28:32.855Z,102398.59
2022-08-09T08:30:35.029Z,102400.67
2022-08-09T08:32:52.236Z,102402.77
2022-08-09T08:34:58.560Z,102401.16
2022-08-09T08:37:01.396Z,102397.89
2022-08-09T08:39:04.755Z,102399.65
2022-08-09T08:41:06.575Z,102406.08
2022-08-09T08:43:13.648Z,102401.55
2022-08-09T08:45:16.908Z,102400.63
2022-08-09T08:47:42.762Z,102400.05
2022-08-09T08:49:49.301Z,102397.52
2022-08-09T08:52:00.380Z,102395.66
2022-08-09T08:54:10.143Z,102393.58
2022-08-09T08:56:27.955Z,102396.23
2022-08-09T08:58:31.556Z,102393.27
2022-08-09T09:00:34.989Z,102391.92
2022-08-09T09:02:38.538Z,102390.35
2022-08-09T09:04:52.616Z,102385.77
2022-08-09T09:06:57.403Z,102389.86
2022-08-09T09:09:00.395Z,102390.95
2022-08-09T09:11:09.128Z,102396.40
2022-08-09T09:13:19.668Z,102395.92
2022-08-09T09:15:28.557Z,102398.79
2022-08-09T09:17:48.403Z,102393.56
2022-08-09T09:19:52.308Z,102392.01
2022-08-09T09:21:57.404Z,102390.48
2022-08-09T09:24:10.250Z,102392.23
2022-08-09T09:26:15.396Z,102390.92
2022-08-09T09:28:21.415Z,102391.64
2022-08-09T09:30:56.239Z,102388.59
2022-08-09T09:33:44.755Z,102386.33
2022-08-09T09:36:00.837Z,102384.16
2022-08-09T09:38:04.603Z,102384.06
2022-08-09T09:40:07.233Z,102383.49
2022-08-09T09:42:23.258Z,102380.38
2022-08-09T09:44:33.904Z,102379.21
2022-08-09T09:46:42.918Z,102378.98
2022-08-09T09:48:58.748Z,102378.84
2022-08-09T09:51:00.456Z,102378.39
2022-08-09T09:53:03.182Z,102373.66
2022-08-09T09:55:24.062Z,102371.66
2022-08-09T09:58:02.503Z,102367.95
2022-08-09T09:59:54.958Z,102369.52
2022-08-09T10:02:00.145Z,102365.14
2022-08-09T10:04:04.348Z,102366.99
2022-08-09T10:06:12.761Z,102363.99
2022-08-09T10:08:28.430Z,102363.41
2022-08-09T10:10:31.632Z,102360.13
2022-08-09T10:12:33.664Z,102357.29
2022-08-09T10:14:35.342Z,102356.59
2022-08-09T10:16:57.883Z,102346.08
2022-08-09T10:19:02.889Z,102345.85
2022-08-09T10:21:09.423Z,102342.74
2022-08-09T10:23:20.371Z,102341.58
2022-08-09T10:25:24.134Z,102339.96
2022-08-09T10:27:44.962Z,102336.28
2022-08-09T10:30:48.093Z,102333.60
2022-08-09T10:32:38.757Z,102325.77
2022-08-09T10:34:42.649Z,102330.43
2022-08-09T10:36:45.488Z,102325.85
2022-08-09T10:38:55.964Z,102326.73
2022-08-09T10:40:59.183Z,102321.23
2022-08-09T10:43:02.489Z,102318.34
2022-08-09T10:45:11.798Z,102311.23
2022-08-09T10:48:19.442Z,102307.55
2022-08-09T10:50:31.468Z,102301.30
2022-08-09T10:52:49.969Z,102298.73
2022-08-09T10:54:53.617Z,102295.52
2022-08-09T10:57:10.400Z,102292.98
2022-08-09T10:59:30.826Z,102290.21
2022-08-09T11:03:12.074Z,102286.13
2022-08-09T11:04:32.513Z,102282.27
2022-08-09T11:06:37.527Z,102281.44
2022-08-09T11:08:47.958Z,102283.25
2022-08-09T11:10:54.886Z,102280.86
2022-08-09T11:13:53.985Z,102282.34
2022-08-09T11:15:50.839Z,102281.73
2022-08-09T11:18:05.513Z,102275.02
2022-08-09T11:20:22.497Z,102273.71
2022-08-09T11:22:40.465Z,102268.79
2022-08-09T11:25:11.957Z,102267.25
2022-08-09T11:28:04.542Z,102266.04
2022-08-09T11:30:05.553Z,102262.74
2022-08-09T11:32:08.590Z,102267.36
2022-08-09T11:34:17.250Z,102269.20
2022-08-09T11:36:30.290Z,102266.58
2022-08-09T11:38:41.471Z,102265.44
2022-08-09T11:40:43.495Z,102260.09
2022-08-09T11:42:50.754Z,102257.95
2022-08-09T11:44:55.326Z,102251.98
2022-08-09T11:47:00.890Z,102251.05
2022-08-09T11:49:05.255Z,102242.22
2022-08-09T11:52:53.871Z,102240.39
2022-08-09T11:54:01.818Z,102234.22
2022-08-09T11:56:02.974Z,102231.89
2022-08-09T11:58:30.201Z,102227.80
2022-08-09T12:00:36.014Z,102219.19
2022-08-09T12:02:53.568Z,102220.80
2022-08-09T12:04:59.085Z,102215.16
2022-08-09T12:07:01.474Z,102216.73
2022-08-09T12:09:19.763Z,102209.73
2022-08-09T12:11:26.972Z,102209.94
2022-08-09T12:14:09.053Z,102201.42
2022-08-09T12:16:06.634Z,102204.56
2022-08-09T12:18:29.988Z,102199.17
2022-08-09T12:20:34.598Z,102198.27
2022-08-09T12:22:36.268Z,102195.50
2022-08-09T12:24:39.051Z,102195.82
2022-08-09T12:29:11.737Z,102197.91
2022-08-09T12:29:23.717Z,102192.62
2022-08-09T12:31:58.223Z,102188.05
2022-08-09T12:34:01.134Z,102187.76
2022-08-09T12:36:04.667Z,102178.27
2022-08-09T12:38:38.238Z,102174.48
2022-08-09T12:40:48.684Z,102163.20
2022-08-09T12:42:54.252Z,102169.17
2022-08-09T12:44:56.165Z,102172.01
2022-08-09T12:47:01.092Z,102172.43
2022-08-09T12:49:04.099Z,102172.25
2022-08-09T12:51:06.082Z,102165.26
2022-08-09T12:53:37.034Z,102166.30
2022-08-09T12:56:16.043Z,102162.04
2022-08-09T12:58:11.675Z,102163.30
2022-08-09T13:00:34.495Z,102158.86
2022-08-09T13:02:54.290Z,102151.48
2022-08-09T13:05:02.649Z,102150.30
2022-08-09T13:07:13.777Z,102150.51
2022-08-09T13:09:26.766Z,102143.85
2022-08-09T13:11:39.168Z,102141.80
2022-08-09T13:14:43.007Z,102133.73
2022-08-09T13:16:11.075Z,102131.17
2022-08-09T13:18:17.427Z,102130.95
2022-08-09T13:20:37.699Z,102134.80
2022-08-09T13:23:04.710Z,102127.42
2022-08-09T13:25:14.232Z,102123.75
2022-08-09T13:27:31.735Z,102119.52
2022-08-09T13:30:03.843Z,102119.52
2022-08-09T13:32:26.481Z,102119.73
2022-08-09T13:34:41.627Z,102118.61
2022-08-09T13:36:43.609Z,102110.17
2022-08-09T13:38:55.550Z,102109.86
2022-08-09T13:41:54.353Z,102110.95
2022-08-09T13:43:22.773Z,102103.71
2022-08-09T13:46:44.586Z,102099.21
2022-08-09T13:47:59.391Z,102100.58
2022-08-09T13:50:02.498Z,102099.70
2022-08-09T13:52:05.372Z,102093.63
2022-08-09T13:54:13.489Z,102093.59
2022-08-09T13:56:18.214Z,102093.38
2022-08-09T13:58:21.474Z,102083.39
2022-08-09T14:00:23.123Z,102080.77
2022-08-09T14:02:30.422Z,102077.20
2022-08-09T14:04:32.186Z,102074.54
2022-08-09T14:06:36.925Z,102072.71
2022-08-09T14:08:41.890Z,102077.05
2022-08-09T14:10:52.568Z,102073.46
2022-08-09T14:12:55.637Z,102068.97
2022-08-09T14:14:57.943Z,102069.78
2022-08-09T14:16:59.768Z,102069.39
2022-08-09T14:19:02.531Z,102072.14
2022-08-09T14:21:04.205Z,102070.55
2022-08-09T14:23:07.837Z,102070.67
2022-08-09T14:25:10.114Z,102062.85
2022-08-09T14:27:20.007Z,102066.59
2022-08-09T14:30:18.457Z,102063.22
2022-08-09T14:31:52.265Z,102060.06
2022-08-09T14:33:55.770Z,102053.54
2022-08-09T14:35:57.489Z,102058.66
2022-08-09T14:38:19.107Z,102052.16
2022-08-09T14:40:38.723Z,102052.05
2022-08-09T14:42:42.829Z,102054.04
2022-08-09T14:44:48.495Z,102053.89
2022-08-09T14:47:29.037Z,102047.64
2022-08-09T14:49:23.723Z,102048.33
2022-08-09T14:51:25.489Z,102050.19
2022-08-09T14:53:31.261Z,102052.58
2022-08-09T14:55:33.279Z,102051.00
2022-08-09T14:57:43.637Z,102047.12
2022-08-09T14:59:48.563Z,102044.71
2022-08-09T15:01:50.512Z,102043.42
2022-08-09T15:03:52.130Z,102045.29
2022-08-09T15:05:55.635Z,102043.56
2022-08-09T15:08:00.297Z,102046.63
2022-08-09T15:10:10.929Z,102042.17
2022-08-09T15:12:16.060Z,102037.83
2022-08-09T15:14:19.161Z,102034.08
2022-08-09T15:16:21.213Z,102034.52
2022-08-09T15:18:22.992Z,102033.60
2022-08-09T15:21:55.922Z,102036.75
2022-08-09T15:22:47.356Z,102036.86
2022-08-09T15:24:49.046Z,102033.59
2022-08-09T15:26:53.239Z,102032.80
2022-08-09T15:28:55.467Z,102023.02
2022-08-09T15:31:08.567Z,102027.15
2022-08-09T15:33:15.215Z,102023.53
2022-08-09T15:35:43.406Z,102016.42
2022-08-09T15:38:11.345Z,102017.52
2022-08-09T15:40:12.118Z,102015.80
2022-08-09T15:42:18.955Z,102014.66
2022-08-09T15:44:23.133Z,102010.47
2022-08-09T15:46:32.856Z,102005.93
2022-08-09T15:48:37.531Z,102009.45
2022-08-09T15:50:39.548Z,102008.16
2022-08-09T15:52:54.998Z,102004.04
2022-08-09T15:55:11.510Z,102004.80
2022-08-09T15:57:13.844Z,102003.19
2022-08-09T15:59:15.574Z,102000.75
2022-08-09T16:01:17.337Z,101998.11
2022-08-09T16:03:29.436Z,101998.88
2022-08-09T16:05:53.344Z,102000.98
2022-08-09T16:07:56.442Z,102001.63
2022-08-09T16:10:04.747Z,101999.64
2022-08-09T16:12:08.178Z,102001.75
2022-08-09T16:14:13.670Z,101998.25
2022-08-09T16:16:18.874Z,101999.74
2022-08-09T16:18:20.787Z,102000.38
2022-08-09T16:20:27.625Z,101995.70
2022-08-09T16:22:32.473Z,101999.13
2022-08-09T16:24:35.838Z,101996.05
2022-08-09T16:26:38.248Z,101996.59
2022-08-09T16:28:39.962Z,101995.58
2022-08-09T16:30:44.435Z,101992.91
2022-08-09T16:33:05.261Z,101991.21
2022-08-09T16:35:11.289Z,101990.49
2022-08-09T16:37:53.420Z,101988.98
2022-08-09T16:39:54.476Z,101993.48
2022-08-09T16:42:05.090Z,101990.21
2022-08-09T16:44:06.846Z,101992.34
2022-08-09T16:46:10.817Z,101995.43
2022-08-09T16:48:43.055Z,102006.59
2022-08-09T16:50:38.683Z,102006.34
2022-08-09T16:52:41.101Z,102006.52
2022-08-09T16:54:44.785Z,102004.44
2022-08-09T16:56:49.148Z,102009.20
2022-08-09T16:58:51.890Z,102009.93
2022-08-09T17:00:53.673Z,102013.70
2022-08-09T17:02:57.283Z,102019.89
2022-08-09T17:04:59.779Z,102020.59
2022-08-09T17:07:09.289Z,102017.92
2022-08-09T17:09:43.867Z,102018.92
2022-08-09T17:11:51.242Z,102020.86
2022-08-09T17:14:01.609Z,102023.64
2022-08-09T17:16:06.117Z,102022.20
2022-08-09T17:18:10.685Z,102018.80
2022-08-09T17:20:32.647Z,102017.14
2022-08-09T17:22:35.769Z,102015.73
2022-08-09T17:24:37.964Z,102016.42
2022-08-09T17:26:53.315Z,102013.44
2022-08-09T17:28:55.476Z,102011.38
2022-08-09T17:30:57.135Z,102011.43
2022-08-09T17:33:05.705Z,102012.92
2022-08-09T17:35:24.763Z,102011.77
2022-08-09T17:37:29.596Z,102015.00
2022-08-09T17:39:52.077Z,102011.01
2022-08-09T17:41:53.328Z,102016.53
2022-08-09T17:44:42.169Z,102013.56
2022-08-09T17:46:16.645Z,102018.20
2022-08-09T17:48:19.624Z,102019.05
2022-08-09T17:50:37.162Z,102023.51
2022-08-09T17:52:39.578Z,102023.98
2022-08-09T17:54:41.256Z,102026.27
2022-08-09T17:56:44.021Z,102025.38
2022-08-09T17:58:47.025Z,102024.14
2022-08-09T18:00:48.961Z,102020.09
2022-08-09T18:02:58.377Z,102021.13
2022-08-09T18:05:00.536Z,102025.20
2022-08-09T18:07:04.917Z,102024.17
2022-08-09T18:09:09.883Z,102028.61
2022-08-09T18:11:16.337Z,102024.97
2022-08-09T18:13:54.404Z,102027.55
2022-08-09T18:16:04.923Z,102029.90
2022-08-09T18:18:07.843Z,102025.06
2022-08-09T18:20:57.988Z,102029.36
2022-08-09T18:22:33.828Z,102031.08
2022-08-09T18:24:36.462Z,102034.73
2022-08-09T18:26:47.039Z,102038.80
2022-08-09T18:30:40.266Z,102041.52
2022-08-09T18:31:11.939Z,102039.52
2022-08-09T18:33:15.280Z,102039.44
2022-08-09T18:35:21.152Z,102042.02
2022-08-09T18:37:48.798Z,102045.48
2022-08-09T18:39:57.634Z,102047.18
2022-08-09T18:42:01.925Z,102044.46
2022-08-09T18:44:13.091Z,102050.36
2022-08-09T18:46:50.302Z,102053.14
2022-08-09T18:48:42.287Z,102056.89
2022-08-09T18:50:44.578Z,102061.38
2022-08-09T18:52:46.809Z,102064.08
2022-08-09T18:54:53.401Z,102068.27
2022-08-09T18:56:55.398Z,102065.88
2022-08-09T18:58:57.191Z,102069.89
2022-08-09T19:00:59.533Z,102073.82
2022-08-09T19:03:02.191Z,102075.23
2022-08-09T19:05:20.490Z,102081.65
2022-08-09T19:07:27.168Z,102083.77
2022-08-09T19:10:13.320Z,102089.02
2022-08-09T19:11:55.046Z,102094.95
2022-08-09T19:13:57.028Z,102093.09
2022-08-09T19:16:04.762Z,102092.39
2022-08-09T19:18:17.111Z,102095.84
2022-08-09T19:20:34.056Z,102096.05
2022-08-09T19:22:36.615Z,102098.70
2022-08-09T19:25:08.940Z,102104.75
2022-08-09T19:27:00.932Z,102110.40
2022-08-09T19:29:15.300Z,102110.96
2022-08-09T19:31:19.844Z,102122.95
2022-08-09T19:33:22.574Z,102122.28
2022-08-09T19:35:26.604Z,102122.06
2022-08-09T19:37:28.343Z,102124.71
2022-08-09T19:40:05.139Z,102134.20
2022-08-09T19:42:05.200Z,102131.76
2022-08-09T19:44:08.898Z,102133.54
2022-08-09T19:46:14.715Z,102135.32
2022-08-09T19:48:16.914Z,102134.65
2022-08-09T19:50:48.986Z,102132.95
2022-08-09T19:52:53.486Z,102135.00
2022-08-09T19:54:55.274Z,102137.61
2022-08-09T19:56:57.233Z,102141.09
2022-08-09T19:59:39.726Z,102145.41
2022-08-09T20:01:24.767Z,102146.48
2022-08-09T20:04:10.757Z,102152.05
2022-08-09T20:06:22.655Z,102157.95
2022-08-09T20:08:34.889Z,102162.59
2022-08-09T20:10:37.385Z,102166.41
2022-08-09T20:12:45.973Z,102166.88
2022-08-09T20:14:50.180Z,102167.41
2022-08-09T20:16:53.564Z,102168.43
2022-08-09T20:19:41.948Z,102171.52
2022-08-09T20:21:18.340Z,102172.03
2022-08-09T20:23:24.362Z,102173.19
2022-08-09T20:25:52.009Z,102173.02
2022-08-09T20:27:55.723Z,102172.39
2022-08-09T20:29:58.826Z,102175.41
2022-08-09T20:32:30.860Z,102179.77
2022-08-09T20:34:22.142Z,102182.95
2022-08-09T20:36:24.744Z,102189.48
2022-08-09T20:38:47.577Z,102185.88
2022-08-09T20:40:50.767Z,102184.89
2022-08-09T20:43:00.314Z,102188.09
2022-08-09T20:46:01.922Z,102189.46
2022-08-09T20:47:48.199Z,102188.52
2022-08-09T20:49:53.063Z,102195.67
2022-08-09T20:51:56.679Z,102194.62
2022-08-09T20:53:58.379Z,102194.52
2022-08-09T20:56:02.507Z,102198.33
2022-08-09T20:58:08.177Z,102195.73
2022-08-09T21:00:30.872Z,102192.77
2022-08-09T21:02:34.574Z,102193.86
2022-08-09T21:05:53.956Z,102191.38
2022-08-09T21:06:58.381Z,102197.00
2022-08-09T21:09:00.379Z,102199.11
2022-08-09T21:11:02.777Z,102197.02
2022-08-09T21:13:08.420Z,102195.47
2022-08-09T21:15:14.267Z,102198.84
2022-08-09T21:18:23.188Z,102200.63
2022-08-09T21:20:18.157Z,102202.27
2022-08-09T21:22:02.781Z,102204.02
2022-08-09T21:24:04.705Z,102199.37
2022-08-09T21:26:07.942Z,102203.55
2022-08-09T21:28:12.002Z,102205.82
2022-08-09T21:30:18.864Z,102210.77
2022-08-09T21:32:20.612Z,102211.13
2022-08-09T21:34:35.159Z,102209.70
2022-08-09T21:36:37.310Z,102213.15
2022-08-09T21:38:39.266Z,102214.93
2022-08-09T21:40:41.135Z,102215.48
2022-08-09T21:42:42.894Z,102213.36
2022-08-09T21:44:55.941Z,102215.96
2022-08-09T21:46:57.606Z,102214.73
2022-08-09T21:48:59.289Z,102214.27
2022-08-09T21:51:00.974Z,102218.02
2022-08-09T21:53:05.477Z,102213.45
2022-08-09T21:55:08.102Z,102217.39
2022-08-09T21:57:37.220Z,102218.19
2022-08-09T21:59:42.691Z,102215.83
2022-08-09T22:02:00.317Z,102217.46
2022-08-09T22:04:03.186Z,102216.38
2022-08-09T22:06:04.898Z,102219.41
2022-08-09T22:08:13.133Z,102214.50
2022-08-09T22:10:24.239Z,102213.65
2022-08-09T22:12:30.484Z,102214.79
2022-08-09T22:14:33.397Z,102214.50
2022-08-09T22:16:37.428Z,102216.45
2022-08-09T22:18:52.965Z,102217.81
2022-08-09T22:20:56.470Z,102217.30
2022-08-09T22:22:58.839Z,102220.05
2022-08-09T22:26:06.264Z,102217.14
2022-08-09T22:27:23.863Z,102217.79
2022-08-09T22:29:32.223Z,102214.35
2022-08-09T22:31:56.276Z,102223.99
2022-08-09T22:33:59.040Z,102224.73
2022-08-09T22:36:03.758Z,102224.62
2022-08-09T22:38:07.620Z,102227.13
2022-08-09T22:40:10.783Z,102225.36
2022-08-09T22:42:23.439Z,102222.67
2022-08-09T22:44:25.927Z,102227.11
2022-08-09T22:48:12.784Z,102228.92
2022-08-09T22:49:01.792Z,102231.01
2022-08-09T22:51:17.762Z,102228.58
2022-08-09T22:53:25.696Z,102231.20
2022-08-09T22:56:06.465Z,102232.30
2022-08-09T22:57:59.878Z,102231.75
2022-08-09T23:00:02.063Z,102231.62
2022-08-09T23:02:03.833Z,102232.09
2022-08-09T23:04:07.190Z,102229.69
2022-08-09T23:06:09.236Z,102228.88
2022-08-09T23:08:34.810Z,102228.08
2022-08-09T23:10:41.596Z,102227.47
2022-08-09T23:12:45.425Z,102224.35
2022-08-09T23:14:54.048Z,102224.98
2022-08-09T23:16:56.243Z,102223.73
2022-08-09T23:18:57.945Z,102223.39
2022-08-09T23:20:59.646Z,102217.66
2022-08-09T23:23:01.302Z,102220.45
2022-08-09T23:25:04.734Z,102222.83
2022-08-09T23:27:06.497Z,102216.58
2022-08-09T23:29:13.447Z,102217.41
2022-08-09T23:31:15.274Z,102216.84
2022-08-09T23:33:17.078Z,102214.30
2022-08-09T23:35:18.751Z,102213.23
2022-08-09T23:37:21.549Z,102209.36
2022-08-09T23:39:27.336Z,102208.77
2022-08-09T23:41:29.858Z,102207.38
2022-08-09T23:43:31.780Z,102204.55
2022-08-09T23:45:37.020Z,102202.30
2022-08-09T23:47:40.321Z,102203.45
2022-08-09T23:49:42.016Z,102205.29
2022-08-09T23:51:43.695Z,102205.48
2022-08-09T23:53:45.357Z,102198.15
2022-08-09T23:55:49.650Z,102198.84
2022-08-09T23:58:07.871Z,102195.84
